<?xml version="1.0" encoding="UTF-8" standalone="no" ?>
<gpx xmlns="http://www.topografix.com/GPX/1/1" xmlns:xsi="http://www.w3.org/2001/XMLSchema-instance" xsi:schemaLocation="http://www.topografix.com/GPX/1/1 http://www.topografix.com/GPX/1/1/gpx.xsd" version="1.1" creator="VisuGPX - https://www.visugpx.com">
  <metadata>
    <name>Saint Pierre la Mer - Gouffre de l'Oeil Doux</name>
    <desc><![CDATA[2017-07 - Saint Pierre la Mer - Gouffre de l'Oeil Doux

[b]album[/b] : [url]https://photos.app.goo.gl/5Y4XzKntL3YnOfm22[/url]
[img]https://3.bp.blogspot.com/-rUzVt_MjQoY/WWzL4cT3fNI/AAAAAAAAWeM/eD0nk0kAOOQ1BXAAXoE14GPP-d3vL7rrgCLcBGAs/s1600/2017-07-12_st-pierre-mer_gouffre-oeil-doux_i.JPG[/img]
[b]Idées de randonnées dans la même région[/b]
Parcours : [url]https://www.visugpx.com/membres/24856/littoral/[/url]
Photos : [url]https://jcvertygo.blogspot.com/p/littoral.html[/url]]]></desc>
  </metadata>
  <trk>
    <name><![CDATA[Saint Pierre la Mer - Gouffre de l'Oeil Doux_1]]></name>
    <trkseg>
      <trkpt lat="43.18105" lon="3.19037">
        <ele>89</ele>
        <time>2017-07-12T08:53:27Z</time>
      </trkpt>
      <trkpt lat="43.18101" lon="3.19042">
        <ele>89</ele>
        <time>2017-07-12T08:53:32Z</time>
      </trkpt>
      <trkpt lat="43.18098" lon="3.19048">
        <ele>88.921880622842</ele>
        <time>2017-07-12T08:53:37Z</time>
      </trkpt>
      <trkpt lat="43.18098" lon="3.19032">
        <ele>89.416179445954</ele>
        <time>2017-07-12T08:53:42Z</time>
      </trkpt>
      <trkpt lat="43.18102" lon="3.19034">
        <ele>89.416179445954</ele>
        <time>2017-07-12T08:53:47Z</time>
      </trkpt>
      <trkpt lat="43.18104" lon="3.19035">
        <ele>89.416179445954</ele>
        <time>2017-07-12T08:53:52Z</time>
      </trkpt>
      <trkpt lat="43.18107" lon="3.19027">
        <ele>89.948642644446</ele>
        <time>2017-07-12T08:53:57Z</time>
      </trkpt>
      <trkpt lat="43.18112" lon="3.19021">
        <ele>89.948642644446</ele>
        <time>2017-07-12T08:54:02Z</time>
      </trkpt>
      <trkpt lat="43.18118" lon="3.19012">
        <ele>90.458670961239</ele>
        <time>2017-07-12T08:54:07Z</time>
      </trkpt>
      <trkpt lat="43.18124" lon="3.19002">
        <ele>90.944818504136</ele>
        <time>2017-07-12T08:54:12Z</time>
      </trkpt>
      <trkpt lat="43.18131" lon="3.18992">
        <ele>91.378829387714</ele>
        <time>2017-07-12T08:54:18Z</time>
      </trkpt>
      <trkpt lat="43.18135" lon="3.18984">
        <ele>91.378829387714</ele>
        <time>2017-07-12T08:54:22Z</time>
      </trkpt>
      <trkpt lat="43.18267" lon="3.18913">
        <ele>92.272781030528</ele>
        <time>2017-07-12T08:55:14Z</time>
      </trkpt>
      <trkpt lat="43.18268" lon="3.18913">
        <ele>92.272781030528</ele>
        <time>2017-07-12T08:55:24Z</time>
      </trkpt>
      <trkpt lat="43.18338" lon="3.18947">
        <ele>93.688384690554</ele>
        <time>2017-07-12T08:56:10Z</time>
      </trkpt>
      <trkpt lat="43.1834" lon="3.18948">
        <ele>93.688384690554</ele>
        <time>2017-07-12T08:56:13Z</time>
      </trkpt>
      <trkpt lat="43.1838" lon="3.18976">
        <ele>95.768996421763</ele>
        <time>2017-07-12T08:56:48Z</time>
      </trkpt>
      <trkpt lat="43.18381" lon="3.18977">
        <ele>95.768996421763</ele>
        <time>2017-07-12T08:56:48Z</time>
      </trkpt>
      <trkpt lat="43.1839" lon="3.1898">
        <ele>97.766278795536</ele>
        <time>2017-07-12T08:56:52Z</time>
      </trkpt>
      <trkpt lat="43.18365" lon="3.18981">
        <ele>99.908451005531</ele>
        <time>2017-07-12T08:57:19Z</time>
      </trkpt>
      <trkpt lat="43.18361" lon="3.18983">
        <ele>99.908451005531</ele>
        <time>2017-07-12T08:57:27Z</time>
      </trkpt>
      <trkpt lat="43.18413" lon="3.19332">
        <ele>95.710006575432</ele>
        <time>2017-07-12T09:00:57Z</time>
      </trkpt>
      <trkpt lat="43.18414" lon="3.1934">
        <ele>95.710006575432</ele>
        <time>2017-07-12T09:01:02Z</time>
      </trkpt>
      <trkpt lat="43.18447" lon="3.19389">
        <ele>85.570714583358</ele>
        <time>2017-07-12T09:01:33Z</time>
      </trkpt>
      <trkpt lat="43.18468" lon="3.19447">
        <ele>73.84428172841</ele>
        <time>2017-07-12T09:02:08Z</time>
      </trkpt>
      <trkpt lat="43.18491" lon="3.19616">
        <ele>55.267444650943</ele>
        <time>2017-07-12T09:04:17Z</time>
      </trkpt>
      <trkpt lat="43.18513" lon="3.19634">
        <ele>37.976574904485</ele>
        <time>2017-07-12T09:04:41Z</time>
      </trkpt>
      <trkpt lat="43.18523" lon="3.19638">
        <ele>22.307289911161</ele>
        <time>2017-07-12T09:04:41Z</time>
      </trkpt>
      <trkpt lat="43.18542" lon="3.19657">
        <ele>8.05598717737</ele>
        <time>2017-07-12T09:05:02Z</time>
      </trkpt>
      <trkpt lat="43.18555" lon="3.1968">
        <ele>-4.8194185098013</ele>
        <time>2017-07-12T09:05:15Z</time>
      </trkpt>
      <trkpt lat="43.18557" lon="3.19683">
        <ele>-4.8194185098013</ele>
        <time>2017-07-12T09:05:17Z</time>
      </trkpt>
      <trkpt lat="43.18574" lon="3.19691">
        <ele>-16.509825475232</ele>
        <time>2017-07-12T09:05:41Z</time>
      </trkpt>
      <trkpt lat="43.18581" lon="3.19699">
        <ele>-26.892171998353</ele>
        <time>2017-07-12T09:05:41Z</time>
      </trkpt>
      <trkpt lat="43.1865" lon="3.19759">
        <ele>-36.801058161428</ele>
        <time>2017-07-12T09:06:48Z</time>
      </trkpt>
      <trkpt lat="43.18685" lon="3.19794">
        <ele>-44.871990412275</ele>
        <time>2017-07-12T09:07:25Z</time>
      </trkpt>
      <trkpt lat="43.18696" lon="3.19796">
        <ele>-51.2476915443</ele>
        <time>2017-07-12T09:07:33Z</time>
      </trkpt>
      <trkpt lat="43.18724" lon="3.19791">
        <ele>-57.467476797601</ele>
        <time>2017-07-12T09:07:52Z</time>
      </trkpt>
      <trkpt lat="43.1879" lon="3.19692">
        <ele>-59.141945376583</ele>
        <time>2017-07-12T09:09:02Z</time>
      </trkpt>
      <trkpt lat="43.18818" lon="3.1968">
        <ele>-58.768413048308</ele>
        <time>2017-07-12T09:09:45Z</time>
      </trkpt>
      <trkpt lat="43.18828" lon="3.19674">
        <ele>-57.151119217833</ele>
        <time>2017-07-12T09:09:45Z</time>
      </trkpt>
      <trkpt lat="43.18915" lon="3.19633">
        <ele>-55.047127205693</ele>
        <time>2017-07-12T09:11:07Z</time>
      </trkpt>
      <trkpt lat="43.18919" lon="3.19629">
        <ele>-55.047127205693</ele>
        <time>2017-07-12T09:11:12Z</time>
      </trkpt>
      <trkpt lat="43.18922" lon="3.19623">
        <ele>-52.85915960649</ele>
        <time>2017-07-12T09:11:17Z</time>
      </trkpt>
      <trkpt lat="43.18926" lon="3.19619">
        <ele>-52.85915960649</ele>
        <time>2017-07-12T09:11:22Z</time>
      </trkpt>
      <trkpt lat="43.18927" lon="3.19612">
        <ele>-50.065005098248</ele>
        <time>2017-07-12T09:11:27Z</time>
      </trkpt>
      <trkpt lat="43.18928" lon="3.19606">
        <ele>-50.065005098248</ele>
        <time>2017-07-12T09:11:32Z</time>
      </trkpt>
      <trkpt lat="43.18929" lon="3.19598">
        <ele>-46.893082857083</ele>
        <time>2017-07-12T09:11:37Z</time>
      </trkpt>
      <trkpt lat="43.1893" lon="3.19591">
        <ele>-46.893082857083</ele>
        <time>2017-07-12T09:11:42Z</time>
      </trkpt>
      <trkpt lat="43.18931" lon="3.19585">
        <ele>-43.569458907616</ele>
        <time>2017-07-12T09:11:47Z</time>
      </trkpt>
      <trkpt lat="43.18932" lon="3.1958">
        <ele>-43.569458907616</ele>
        <time>2017-07-12T09:11:57Z</time>
      </trkpt>
      <trkpt lat="43.18947" lon="3.19574">
        <ele>-40.223768350887</ele>
        <time>2017-07-12T09:12:21Z</time>
      </trkpt>
      <trkpt lat="43.18978" lon="3.19599">
        <ele>-37.05074122067</ele>
        <time>2017-07-12T09:12:57Z</time>
      </trkpt>
      <trkpt lat="43.18985" lon="3.19602">
        <ele>-37.05074122067</ele>
        <time>2017-07-12T09:13:02Z</time>
      </trkpt>
      <trkpt lat="43.19106" lon="3.19556">
        <ele>-34.812018338832</ele>
        <time>2017-07-12T09:15:17Z</time>
      </trkpt>
      <trkpt lat="43.19115" lon="3.19553">
        <ele>-32.63765352379</ele>
        <time>2017-07-12T09:15:17Z</time>
      </trkpt>
      <trkpt lat="43.19119" lon="3.1955">
        <ele>-32.63765352379</ele>
        <time>2017-07-12T09:15:23Z</time>
      </trkpt>
      <trkpt lat="43.1919" lon="3.1946">
        <ele>-30.387380588826</ele>
        <time>2017-07-12T09:16:56Z</time>
      </trkpt>
      <trkpt lat="43.19191" lon="3.1946">
        <ele>-30.387380588826</ele>
        <time>2017-07-12T09:16:57Z</time>
      </trkpt>
      <trkpt lat="43.1921" lon="3.19445">
        <ele>-28.044118158944</ele>
        <time>2017-07-12T09:17:22Z</time>
      </trkpt>
      <trkpt lat="43.19215" lon="3.19437">
        <ele>-28.044118158944</ele>
        <time>2017-07-12T09:17:22Z</time>
      </trkpt>
      <trkpt lat="43.19221" lon="3.1942">
        <ele>-25.621708406042</ele>
        <time>2017-07-12T09:17:41Z</time>
      </trkpt>
      <trkpt lat="43.19225" lon="3.19407">
        <ele>-23.1196454327</ele>
        <time>2017-07-12T09:17:41Z</time>
      </trkpt>
      <trkpt lat="43.19238" lon="3.19387">
        <ele>-20.523239898378</ele>
        <time>2017-07-12T09:17:57Z</time>
      </trkpt>
      <trkpt lat="43.19243" lon="3.19384">
        <ele>-20.523239898378</ele>
        <time>2017-07-12T09:18:02Z</time>
      </trkpt>
      <trkpt lat="43.19248" lon="3.1938">
        <ele>-17.7452704089</ele>
        <time>2017-07-12T09:18:07Z</time>
      </trkpt>
      <trkpt lat="43.19253" lon="3.19376">
        <ele>-17.7452704089</ele>
        <time>2017-07-12T09:18:12Z</time>
      </trkpt>
      <trkpt lat="43.19257" lon="3.19371">
        <ele>-14.998298529154</ele>
        <time>2017-07-12T09:18:17Z</time>
      </trkpt>
      <trkpt lat="43.19262" lon="3.19367">
        <ele>-14.998298529154</ele>
        <time>2017-07-12T09:18:22Z</time>
      </trkpt>
      <trkpt lat="43.19267" lon="3.19362">
        <ele>-12.36342987058</ele>
        <time>2017-07-12T09:18:27Z</time>
      </trkpt>
      <trkpt lat="43.19269" lon="3.19357">
        <ele>-12.36342987058</ele>
        <time>2017-07-12T09:18:33Z</time>
      </trkpt>
      <trkpt lat="43.19282" lon="3.19298">
        <ele>-10.138646815685</ele>
        <time>2017-07-12T09:19:24Z</time>
      </trkpt>
      <trkpt lat="43.19282" lon="3.19285">
        <ele>-7.9869772903393</ele>
        <time>2017-07-12T09:19:24Z</time>
      </trkpt>
      <trkpt lat="43.19288" lon="3.19201">
        <ele>-5.2753436022729</ele>
        <time>2017-07-12T09:20:17Z</time>
      </trkpt>
      <trkpt lat="43.19303" lon="3.19147">
        <ele>-2.7076733760151</ele>
        <time>2017-07-12T09:20:56Z</time>
      </trkpt>
      <trkpt lat="43.19304" lon="3.19146">
        <ele>-2.7076733760151</ele>
        <time>2017-07-12T09:20:57Z</time>
      </trkpt>
      <trkpt lat="43.1931" lon="3.19051">
        <ele>0.46341361089099</ele>
        <time>2017-07-12T09:22:03Z</time>
      </trkpt>
      <trkpt lat="43.19317" lon="3.19019">
        <ele>4.8249938760778</ele>
        <time>2017-07-12T09:22:31Z</time>
      </trkpt>
      <trkpt lat="43.19321" lon="3.19007">
        <ele>9.0288690548926</ele>
        <time>2017-07-12T09:22:31Z</time>
      </trkpt>
      <trkpt lat="43.19323" lon="3.18973">
        <ele>13.082702740562</ele>
        <time>2017-07-12T09:22:48Z</time>
      </trkpt>
      <trkpt lat="43.19321" lon="3.18973">
        <ele>13.082702740562</ele>
        <time>2017-07-12T09:22:52Z</time>
      </trkpt>
      <trkpt lat="43.19319" lon="3.1897">
        <ele>13.082702740562</ele>
        <time>2017-07-12T09:23:02Z</time>
      </trkpt>
      <trkpt lat="43.19315" lon="3.18968">
        <ele>16.527970608375</ele>
        <time>2017-07-12T09:23:07Z</time>
      </trkpt>
      <trkpt lat="43.19309" lon="3.18966">
        <ele>16.527970608375</ele>
        <time>2017-07-12T09:23:15Z</time>
      </trkpt>
      <trkpt lat="43.19298" lon="3.18946">
        <ele>19.549205955946</ele>
        <time>2017-07-12T09:23:30Z</time>
      </trkpt>
      <trkpt lat="43.19289" lon="3.18921">
        <ele>22.213765764238</ele>
        <time>2017-07-12T09:23:56Z</time>
      </trkpt>
      <trkpt lat="43.19285" lon="3.18915">
        <ele>22.213765764238</ele>
        <time>2017-07-12T09:23:56Z</time>
      </trkpt>
      <trkpt lat="43.19285" lon="3.18914">
        <ele>22.213765764238</ele>
        <time>2017-07-12T09:23:57Z</time>
      </trkpt>
      <trkpt lat="43.19304" lon="3.18849">
        <ele>24.330390011373</ele>
        <time>2017-07-12T09:24:50Z</time>
      </trkpt>
      <trkpt lat="43.19306" lon="3.18844">
        <ele>24.330390011373</ele>
        <time>2017-07-12T09:24:53Z</time>
      </trkpt>
      <trkpt lat="43.19308" lon="3.18812">
        <ele>25.936323200913</ele>
        <time>2017-07-12T09:25:57Z</time>
      </trkpt>
      <trkpt lat="43.1933" lon="3.18733">
        <ele>26.993277035217</ele>
        <time>2017-07-12T09:27:08Z</time>
      </trkpt>
      <trkpt lat="43.19287" lon="3.18717">
        <ele>28.125346735797</ele>
        <time>2017-07-12T09:28:04Z</time>
      </trkpt>
      <trkpt lat="43.19279" lon="3.1873">
        <ele>29.129722192538</ele>
        <time>2017-07-12T09:28:41Z</time>
      </trkpt>
      <trkpt lat="43.19265" lon="3.18731">
        <ele>30.162959241247</ele>
        <time>2017-07-12T09:29:18Z</time>
      </trkpt>
      <trkpt lat="43.19252" lon="3.18733">
        <ele>31.67974001436</ele>
        <time>2017-07-12T09:30:19Z</time>
      </trkpt>
      <trkpt lat="43.19241" lon="3.18746">
        <ele>33.252752426696</ele>
        <time>2017-07-12T09:31:02Z</time>
      </trkpt>
      <trkpt lat="43.19223" lon="3.18751">
        <ele>35.021485537258</ele>
        <time>2017-07-12T09:32:08Z</time>
      </trkpt>
      <trkpt lat="43.19215" lon="3.18733">
        <ele>36.833991240965</ele>
        <time>2017-07-12T09:32:24Z</time>
      </trkpt>
      <trkpt lat="43.19206" lon="3.1872">
        <ele>38.62447999487</ele>
        <time>2017-07-12T09:32:52Z</time>
      </trkpt>
      <trkpt lat="43.19206" lon="3.1872">
        <ele>38.62447999487</ele>
        <time>2017-07-12T09:32:57Z</time>
      </trkpt>
      <trkpt lat="43.19206" lon="3.18707">
        <ele>40.245003759139</ele>
        <time>2017-07-12T09:35:08Z</time>
      </trkpt>
      <trkpt lat="43.19206" lon="3.18707">
        <ele>40.245003759139</ele>
        <time>2017-07-12T09:35:54Z</time>
      </trkpt>
      <trkpt lat="43.192" lon="3.1872">
        <ele>41.458049357198</ele>
        <time>2017-07-12T09:36:52Z</time>
      </trkpt>
      <trkpt lat="43.19197" lon="3.18723">
        <ele>41.458049357198</ele>
        <time>2017-07-12T09:36:57Z</time>
      </trkpt>
      <trkpt lat="43.19164" lon="3.18688">
        <ele>42.61560078915</ele>
        <time>2017-07-12T09:37:52Z</time>
      </trkpt>
      <trkpt lat="43.19163" lon="3.18676">
        <ele>42.61560078915</ele>
        <time>2017-07-12T09:38:09Z</time>
      </trkpt>
      <trkpt lat="43.19181" lon="3.18623">
        <ele>43.415208312465</ele>
        <time>2017-07-12T09:39:08Z</time>
      </trkpt>
      <trkpt lat="43.19189" lon="3.18543">
        <ele>43.885080237609</ele>
        <time>2017-07-12T09:40:50Z</time>
      </trkpt>
      <trkpt lat="43.19189" lon="3.18541">
        <ele>43.885080237609</ele>
        <time>2017-07-12T09:40:52Z</time>
      </trkpt>
      <trkpt lat="43.19202" lon="3.18485">
        <ele>44.197324697632</ele>
        <time>2017-07-12T09:41:32Z</time>
      </trkpt>
      <trkpt lat="43.19199" lon="3.18453">
        <ele>44.380488389596</ele>
        <time>2017-07-12T09:41:52Z</time>
      </trkpt>
      <trkpt lat="43.19199" lon="3.1845">
        <ele>44.380488389596</ele>
        <time>2017-07-12T09:41:57Z</time>
      </trkpt>
      <trkpt lat="43.19197" lon="3.18439">
        <ele>44.693188661748</ele>
        <time>2017-07-12T09:42:12Z</time>
      </trkpt>
      <trkpt lat="43.19196" lon="3.18431">
        <ele>44.693188661748</ele>
        <time>2017-07-12T09:42:17Z</time>
      </trkpt>
      <trkpt lat="43.19194" lon="3.18421">
        <ele>45.127821947556</ele>
        <time>2017-07-12T09:42:22Z</time>
      </trkpt>
      <trkpt lat="43.19196" lon="3.18413">
        <ele>45.127821947556</ele>
        <time>2017-07-12T09:42:27Z</time>
      </trkpt>
      <trkpt lat="43.19197" lon="3.18405">
        <ele>45.648393556933</ele>
        <time>2017-07-12T09:42:32Z</time>
      </trkpt>
      <trkpt lat="43.19206" lon="3.18293">
        <ele>46.640754845402</ele>
        <time>2017-07-12T09:43:47Z</time>
      </trkpt>
      <trkpt lat="43.19208" lon="3.18285">
        <ele>46.640754845402</ele>
        <time>2017-07-12T09:43:52Z</time>
      </trkpt>
      <trkpt lat="43.19212" lon="3.18269">
        <ele>47.593893918413</ele>
        <time>2017-07-12T09:44:11Z</time>
      </trkpt>
      <trkpt lat="43.19221" lon="3.18192">
        <ele>49.075117513178</ele>
        <time>2017-07-12T09:44:52Z</time>
      </trkpt>
      <trkpt lat="43.19241" lon="3.18113">
        <ele>51.102816965062</ele>
        <time>2017-07-12T09:45:42Z</time>
      </trkpt>
      <trkpt lat="43.19242" lon="3.18106">
        <ele>51.102816965062</ele>
        <time>2017-07-12T09:45:47Z</time>
      </trkpt>
      <trkpt lat="43.19245" lon="3.181">
        <ele>52.740688664929</ele>
        <time>2017-07-12T09:45:52Z</time>
      </trkpt>
      <trkpt lat="43.19247" lon="3.18093">
        <ele>52.740688664929</ele>
        <time>2017-07-12T09:45:57Z</time>
      </trkpt>
      <trkpt lat="43.19249" lon="3.18087">
        <ele>53.916605639012</ele>
        <time>2017-07-12T09:46:02Z</time>
      </trkpt>
      <trkpt lat="43.1925" lon="3.1808">
        <ele>53.916605639012</ele>
        <time>2017-07-12T09:46:07Z</time>
      </trkpt>
      <trkpt lat="43.19252" lon="3.18076">
        <ele>53.916605639012</ele>
        <time>2017-07-12T09:46:12Z</time>
      </trkpt>
      <trkpt lat="43.1927" lon="3.18018">
        <ele>53.728670783876</ele>
        <time>2017-07-12T09:47:02Z</time>
      </trkpt>
      <trkpt lat="43.19272" lon="3.18014">
        <ele>53.728670783876</ele>
        <time>2017-07-12T09:47:09Z</time>
      </trkpt>
      <trkpt lat="43.19279" lon="3.1801">
        <ele>53.133328331804</ele>
        <time>2017-07-12T09:47:24Z</time>
      </trkpt>
      <trkpt lat="43.19288" lon="3.18017">
        <ele>52.33983847218</ele>
        <time>2017-07-12T09:47:38Z</time>
      </trkpt>
      <trkpt lat="43.19299" lon="3.18024">
        <ele>51.340782789945</ele>
        <time>2017-07-12T09:47:46Z</time>
      </trkpt>
      <trkpt lat="43.19304" lon="3.1803">
        <ele>51.340782789945</ele>
        <time>2017-07-12T09:47:55Z</time>
      </trkpt>
      <trkpt lat="43.19321" lon="3.1804">
        <ele>50.129887530829</ele>
        <time>2017-07-12T09:48:04Z</time>
      </trkpt>
      <trkpt lat="43.19323" lon="3.1804">
        <ele>50.129887530829</ele>
        <time>2017-07-12T09:48:12Z</time>
      </trkpt>
      <trkpt lat="43.19371" lon="3.18054">
        <ele>49.249819857289</ele>
        <time>2017-07-12T09:48:52Z</time>
      </trkpt>
      <trkpt lat="43.19391" lon="3.1805">
        <ele>48.351787287206</ele>
        <time>2017-07-12T09:49:19Z</time>
      </trkpt>
      <trkpt lat="43.19426" lon="3.18065">
        <ele>47.617278113524</ele>
        <time>2017-07-12T09:50:18Z</time>
      </trkpt>
      <trkpt lat="43.19475" lon="3.1814">
        <ele>45.786347417034</ele>
        <time>2017-07-12T09:50:47Z</time>
      </trkpt>
      <trkpt lat="43.1948" lon="3.18137">
        <ele>45.786347417034</ele>
        <time>2017-07-12T09:50:52Z</time>
      </trkpt>
      <trkpt lat="43.19484" lon="3.18133">
        <ele>44.419997946513</ele>
        <time>2017-07-12T09:50:57Z</time>
      </trkpt>
      <trkpt lat="43.19486" lon="3.18128">
        <ele>44.419997946513</ele>
        <time>2017-07-12T09:51:02Z</time>
      </trkpt>
      <trkpt lat="43.19488" lon="3.18122">
        <ele>43.348123857282</ele>
        <time>2017-07-12T09:51:07Z</time>
      </trkpt>
      <trkpt lat="43.19492" lon="3.18116">
        <ele>43.348123857282</ele>
        <time>2017-07-12T09:51:12Z</time>
      </trkpt>
      <trkpt lat="43.19493" lon="3.18113">
        <ele>43.348123857282</ele>
        <time>2017-07-12T09:51:23Z</time>
      </trkpt>
      <trkpt lat="43.19495" lon="3.18093">
        <ele>42.051566441178</ele>
        <time>2017-07-12T09:51:31Z</time>
      </trkpt>
      <trkpt lat="43.19519" lon="3.18042">
        <ele>40.439163808223</ele>
        <time>2017-07-12T09:52:13Z</time>
      </trkpt>
      <trkpt lat="43.19527" lon="3.17997">
        <ele>38.989707344101</ele>
        <time>2017-07-12T09:52:47Z</time>
      </trkpt>
      <trkpt lat="43.19527" lon="3.17993">
        <ele>38.989707344101</ele>
        <time>2017-07-12T09:52:56Z</time>
      </trkpt>
      <trkpt lat="43.19525" lon="3.17971">
        <ele>38.232753543227</ele>
        <time>2017-07-12T09:53:16Z</time>
      </trkpt>
      <trkpt lat="43.19526" lon="3.17962">
        <ele>38.232753543227</ele>
        <time>2017-07-12T09:53:16Z</time>
      </trkpt>
      <trkpt lat="43.19604" lon="3.17738">
        <ele>38.642392213395</ele>
        <time>2017-07-12T09:56:12Z</time>
      </trkpt>
      <trkpt lat="43.19621" lon="3.17718">
        <ele>38.808050262962</ele>
        <time>2017-07-12T09:56:33Z</time>
      </trkpt>
      <trkpt lat="43.19627" lon="3.1771">
        <ele>38.808050262962</ele>
        <time>2017-07-12T09:56:33Z</time>
      </trkpt>
      <trkpt lat="43.19632" lon="3.17702">
        <ele>38.764811243587</ele>
        <time>2017-07-12T09:56:43Z</time>
      </trkpt>
      <trkpt lat="43.19636" lon="3.17696">
        <ele>38.764811243587</ele>
        <time>2017-07-12T09:56:47Z</time>
      </trkpt>
      <trkpt lat="43.19664" lon="3.17646">
        <ele>38.213843735563</ele>
        <time>2017-07-12T09:57:32Z</time>
      </trkpt>
      <trkpt lat="43.19664" lon="3.17645">
        <ele>38.213843735563</ele>
        <time>2017-07-12T09:57:37Z</time>
      </trkpt>
      <trkpt lat="43.1967" lon="3.17638">
        <ele>38.213843735563</ele>
        <time>2017-07-12T09:58:02Z</time>
      </trkpt>
      <trkpt lat="43.19673" lon="3.17637">
        <ele>38.17771880226</ele>
        <time>2017-07-12T09:58:07Z</time>
      </trkpt>
      <trkpt lat="43.19677" lon="3.17635">
        <ele>38.17771880226</ele>
        <time>2017-07-12T09:58:12Z</time>
      </trkpt>
      <trkpt lat="43.19681" lon="3.17632">
        <ele>38.376133705666</ele>
        <time>2017-07-12T09:58:17Z</time>
      </trkpt>
      <trkpt lat="43.19684" lon="3.17631">
        <ele>38.376133705666</ele>
        <time>2017-07-12T09:58:22Z</time>
      </trkpt>
      <trkpt lat="43.19689" lon="3.17631">
        <ele>38.376133705666</ele>
        <time>2017-07-12T09:58:27Z</time>
      </trkpt>
      <trkpt lat="43.19695" lon="3.17632">
        <ele>38.548591716836</ele>
        <time>2017-07-12T09:58:32Z</time>
      </trkpt>
      <trkpt lat="43.19744" lon="3.17653">
        <ele>38.540228083261</ele>
        <time>2017-07-12T09:59:34Z</time>
      </trkpt>
      <trkpt lat="43.19756" lon="3.1769">
        <ele>38.352160436542</ele>
        <time>2017-07-12T10:00:02Z</time>
      </trkpt>
      <trkpt lat="43.19755" lon="3.17694">
        <ele>38.352160436542</ele>
        <time>2017-07-12T10:00:02Z</time>
      </trkpt>
      <trkpt lat="43.19753" lon="3.17714">
        <ele>38.029046940711</ele>
        <time>2017-07-12T10:00:22Z</time>
      </trkpt>
      <trkpt lat="43.1975" lon="3.17724">
        <ele>38.029046940711</ele>
        <time>2017-07-12T10:00:23Z</time>
      </trkpt>
      <trkpt lat="43.19744" lon="3.17754">
        <ele>37.497129734233</ele>
        <time>2017-07-12T10:00:45Z</time>
      </trkpt>
      <trkpt lat="43.19744" lon="3.17757">
        <ele>37.497129734233</ele>
        <time>2017-07-12T10:00:47Z</time>
      </trkpt>
      <trkpt lat="43.19741" lon="3.17769">
        <ele>36.847145447208</ele>
        <time>2017-07-12T10:01:01Z</time>
      </trkpt>
      <trkpt lat="43.1974" lon="3.1778">
        <ele>36.847145447208</ele>
        <time>2017-07-12T10:01:01Z</time>
      </trkpt>
      <trkpt lat="43.19739" lon="3.17785">
        <ele>36.2642680954</ele>
        <time>2017-07-12T10:01:04Z</time>
      </trkpt>
      <trkpt lat="43.19711" lon="3.17827">
        <ele>35.73226660539</ele>
        <time>2017-07-12T10:02:00Z</time>
      </trkpt>
      <trkpt lat="43.19696" lon="3.17847">
        <ele>35.307912416387</ele>
        <time>2017-07-12T10:02:08Z</time>
      </trkpt>
      <trkpt lat="43.19671" lon="3.17885">
        <ele>34.884775309346</ele>
        <time>2017-07-12T10:02:42Z</time>
      </trkpt>
      <trkpt lat="43.19665" lon="3.17893">
        <ele>34.884775309346</ele>
        <time>2017-07-12T10:02:59Z</time>
      </trkpt>
      <trkpt lat="43.1966" lon="3.17899">
        <ele>34.43620809609</ele>
        <time>2017-07-12T10:02:59Z</time>
      </trkpt>
      <trkpt lat="43.19654" lon="3.17905">
        <ele>34.43620809609</ele>
        <time>2017-07-12T10:03:07Z</time>
      </trkpt>
      <trkpt lat="43.19649" lon="3.17912">
        <ele>34.110452016757</ele>
        <time>2017-07-12T10:03:14Z</time>
      </trkpt>
      <trkpt lat="43.19572" lon="3.17963">
        <ele>34.159683313643</ele>
        <time>2017-07-12T10:04:43Z</time>
      </trkpt>
      <trkpt lat="43.19566" lon="3.17965">
        <ele>34.159683313643</ele>
        <time>2017-07-12T10:04:43Z</time>
      </trkpt>
      <trkpt lat="43.19563" lon="3.17968">
        <ele>34.239776897722</ele>
        <time>2017-07-12T10:04:47Z</time>
      </trkpt>
      <trkpt lat="43.19556" lon="3.17974">
        <ele>34.239776897722</ele>
        <time>2017-07-12T10:05:04Z</time>
      </trkpt>
      <trkpt lat="43.19546" lon="3.1798">
        <ele>34.36325368816</ele>
        <time>2017-07-12T10:05:04Z</time>
      </trkpt>
      <trkpt lat="43.19529" lon="3.18011">
        <ele>34.469418425818</ele>
        <time>2017-07-12T10:05:37Z</time>
      </trkpt>
      <trkpt lat="43.19523" lon="3.18017">
        <ele>34.469418425818</ele>
        <time>2017-07-12T10:05:39Z</time>
      </trkpt>
      <trkpt lat="43.19519" lon="3.1803">
        <ele>34.516403042087</ele>
        <time>2017-07-12T10:05:53Z</time>
      </trkpt>
      <trkpt lat="43.19517" lon="3.18042">
        <ele>34.516403042087</ele>
        <time>2017-07-12T10:05:53Z</time>
      </trkpt>
      <trkpt lat="43.19491" lon="3.18106">
        <ele>34.249302223487</ele>
        <time>2017-07-12T10:06:45Z</time>
      </trkpt>
      <trkpt lat="43.19486" lon="3.18137">
        <ele>33.692169044392</ele>
        <time>2017-07-12T10:07:07Z</time>
      </trkpt>
      <trkpt lat="43.19487" lon="3.18137">
        <ele>33.692169044392</ele>
        <time>2017-07-12T10:07:12Z</time>
      </trkpt>
      <trkpt lat="43.19486" lon="3.18144">
        <ele>33.692169044392</ele>
        <time>2017-07-12T10:08:02Z</time>
      </trkpt>
      <trkpt lat="43.19484" lon="3.18148">
        <ele>33.213902858775</ele>
        <time>2017-07-12T10:08:07Z</time>
      </trkpt>
      <trkpt lat="43.19482" lon="3.18156">
        <ele>33.213902858775</ele>
        <time>2017-07-12T10:08:12Z</time>
      </trkpt>
      <trkpt lat="43.19482" lon="3.18162">
        <ele>32.550680391301</ele>
        <time>2017-07-12T10:08:17Z</time>
      </trkpt>
      <trkpt lat="43.19478" lon="3.18176">
        <ele>31.717920461095</ele>
        <time>2017-07-12T10:08:27Z</time>
      </trkpt>
      <trkpt lat="43.19476" lon="3.18182">
        <ele>31.717920461095</ele>
        <time>2017-07-12T10:08:32Z</time>
      </trkpt>
      <trkpt lat="43.19474" lon="3.18192">
        <ele>30.787949108598</ele>
        <time>2017-07-12T10:08:42Z</time>
      </trkpt>
      <trkpt lat="43.19472" lon="3.18198">
        <ele>30.787949108598</ele>
        <time>2017-07-12T10:08:47Z</time>
      </trkpt>
      <trkpt lat="43.19457" lon="3.18423">
        <ele>28.415645843904</ele>
        <time>2017-07-12T10:11:19Z</time>
      </trkpt>
      <trkpt lat="43.19456" lon="3.1844">
        <ele>26.111257133797</ele>
        <time>2017-07-12T10:11:19Z</time>
      </trkpt>
      <trkpt lat="43.19456" lon="3.18451">
        <ele>26.111257133797</ele>
        <time>2017-07-12T10:11:35Z</time>
      </trkpt>
      <trkpt lat="43.19452" lon="3.18503">
        <ele>23.659705427974</ele>
        <time>2017-07-12T10:12:04Z</time>
      </trkpt>
      <trkpt lat="43.19448" lon="3.18555">
        <ele>21.107015778109</ele>
        <time>2017-07-12T10:12:41Z</time>
      </trkpt>
      <trkpt lat="43.19444" lon="3.18562">
        <ele>21.107015778109</ele>
        <time>2017-07-12T10:12:41Z</time>
      </trkpt>
      <trkpt lat="43.19444" lon="3.18563">
        <ele>21.107015778109</ele>
        <time>2017-07-12T10:12:42Z</time>
      </trkpt>
      <trkpt lat="43.19444" lon="3.1858">
        <ele>18.683346444601</ele>
        <time>2017-07-12T10:12:52Z</time>
      </trkpt>
      <trkpt lat="43.19437" lon="3.18597">
        <ele>16.399703298564</ele>
        <time>2017-07-12T10:13:15Z</time>
      </trkpt>
      <trkpt lat="43.19436" lon="3.18607">
        <ele>16.399703298564</ele>
        <time>2017-07-12T10:13:15Z</time>
      </trkpt>
      <trkpt lat="43.19428" lon="3.18647">
        <ele>14.06399990765</ele>
        <time>2017-07-12T10:13:49Z</time>
      </trkpt>
      <trkpt lat="43.19427" lon="3.18651">
        <ele>14.06399990765</ele>
        <time>2017-07-12T10:13:52Z</time>
      </trkpt>
      <trkpt lat="43.19423" lon="3.18666">
        <ele>11.844135686677</ele>
        <time>2017-07-12T10:14:02Z</time>
      </trkpt>
      <trkpt lat="43.19422" lon="3.1867">
        <ele>11.844135686677</ele>
        <time>2017-07-12T10:14:07Z</time>
      </trkpt>
      <trkpt lat="43.19418" lon="3.18683">
        <ele>9.8519714440057</ele>
        <time>2017-07-12T10:14:17Z</time>
      </trkpt>
      <trkpt lat="43.19417" lon="3.18689">
        <ele>9.8519714440057</ele>
        <time>2017-07-12T10:14:22Z</time>
      </trkpt>
      <trkpt lat="43.19418" lon="3.18703">
        <ele>7.7868450739</ele>
        <time>2017-07-12T10:14:37Z</time>
      </trkpt>
      <trkpt lat="43.19378" lon="3.18712">
        <ele>6.1772670504819</ele>
        <time>2017-07-12T10:15:27Z</time>
      </trkpt>
      <trkpt lat="43.19364" lon="3.18704">
        <ele>4.8485729612604</ele>
        <time>2017-07-12T10:15:46Z</time>
      </trkpt>
      <trkpt lat="43.19346" lon="3.18787">
        <ele>3.0038876542734</ele>
        <time>2017-07-12T10:16:52Z</time>
      </trkpt>
      <trkpt lat="43.19344" lon="3.18795">
        <ele>3.0038876542734</ele>
        <time>2017-07-12T10:16:57Z</time>
      </trkpt>
      <trkpt lat="43.19323" lon="3.18882">
        <ele>0.77085414311031</ele>
        <time>2017-07-12T10:17:52Z</time>
      </trkpt>
      <trkpt lat="43.19318" lon="3.18911">
        <ele>-1.3422093365427</ele>
        <time>2017-07-12T10:18:17Z</time>
      </trkpt>
      <trkpt lat="43.1931" lon="3.1896">
        <ele>-3.3259733476589</ele>
        <time>2017-07-12T10:18:50Z</time>
      </trkpt>
      <trkpt lat="43.1931" lon="3.18975">
        <ele>-5.1434794258713</ele>
        <time>2017-07-12T10:18:50Z</time>
      </trkpt>
      <trkpt lat="43.19309" lon="3.19084">
        <ele>-6.7178602029749</ele>
        <time>2017-07-12T10:20:08Z</time>
      </trkpt>
      <trkpt lat="43.19292" lon="3.19167">
        <ele>-8.050775179449</ele>
        <time>2017-07-12T10:20:57Z</time>
      </trkpt>
      <trkpt lat="43.19285" lon="3.19187">
        <ele>-9.2310437483794</ele>
        <time>2017-07-12T10:21:18Z</time>
      </trkpt>
      <trkpt lat="43.19274" lon="3.19214">
        <ele>-10.341517312225</ele>
        <time>2017-07-12T10:21:35Z</time>
      </trkpt>
      <trkpt lat="43.19203" lon="3.19449">
        <ele>-11.790741658337</ele>
        <time>2017-07-12T10:24:28Z</time>
      </trkpt>
      <trkpt lat="43.192" lon="3.19455">
        <ele>-11.790741658337</ele>
        <time>2017-07-12T10:24:32Z</time>
      </trkpt>
      <trkpt lat="43.19199" lon="3.19455">
        <ele>-11.790741658337</ele>
        <time>2017-07-12T10:24:37Z</time>
      </trkpt>
      <trkpt lat="43.19199" lon="3.1946">
        <ele>-12.198212205165</ele>
        <time>2017-07-12T10:25:02Z</time>
      </trkpt>
      <trkpt lat="43.19196" lon="3.1946">
        <ele>-12.198212205165</ele>
        <time>2017-07-12T10:25:07Z</time>
      </trkpt>
      <trkpt lat="43.1919" lon="3.19466">
        <ele>-12.319880259219</ele>
        <time>2017-07-12T10:25:17Z</time>
      </trkpt>
      <trkpt lat="43.19185" lon="3.19472">
        <ele>-12.319880259219</ele>
        <time>2017-07-12T10:25:22Z</time>
      </trkpt>
      <trkpt lat="43.19135" lon="3.19523">
        <ele>-12.33824143252</ele>
        <time>2017-07-12T10:26:25Z</time>
      </trkpt>
      <trkpt lat="43.18978" lon="3.19654">
        <ele>-12.754213035722</ele>
        <time>2017-07-12T10:29:22Z</time>
      </trkpt>
      <trkpt lat="43.18974" lon="3.19654">
        <ele>-12.754213035722</ele>
        <time>2017-07-12T10:29:27Z</time>
      </trkpt>
      <trkpt lat="43.18967" lon="3.19651">
        <ele>-12.906769344982</ele>
        <time>2017-07-12T10:29:43Z</time>
      </trkpt>
      <trkpt lat="43.18956" lon="3.19645">
        <ele>-12.919214380367</ele>
        <time>2017-07-12T10:29:43Z</time>
      </trkpt>
      <trkpt lat="43.1891" lon="3.19638">
        <ele>-12.978278386143</ele>
        <time>2017-07-12T10:30:33Z</time>
      </trkpt>
      <trkpt lat="43.18902" lon="3.19644">
        <ele>-12.983049648419</ele>
        <time>2017-07-12T10:30:33Z</time>
      </trkpt>
      <trkpt lat="43.18895" lon="3.19651">
        <ele>-12.983049648419</ele>
        <time>2017-07-12T10:30:51Z</time>
      </trkpt>
      <trkpt lat="43.18725" lon="3.19755">
        <ele>-10.937894826562</ele>
        <time>2017-07-12T10:33:27Z</time>
      </trkpt>
      <trkpt lat="43.18723" lon="3.19761">
        <ele>-10.937894826562</ele>
        <time>2017-07-12T10:33:32Z</time>
      </trkpt>
      <trkpt lat="43.18716" lon="3.19768">
        <ele>-8.8329360926792</ele>
        <time>2017-07-12T10:33:42Z</time>
      </trkpt>
      <trkpt lat="43.18584" lon="3.19699">
        <ele>-6.1199537388635</ele>
        <time>2017-07-12T10:35:54Z</time>
      </trkpt>
      <trkpt lat="43.18539" lon="3.1966">
        <ele>-3.4887861280963</ele>
        <time>2017-07-12T10:36:46Z</time>
      </trkpt>
      <trkpt lat="43.18487" lon="3.19617">
        <ele>-0.84330599187815</ele>
        <time>2017-07-12T10:37:32Z</time>
      </trkpt>
      <trkpt lat="43.18248" lon="3.19416">
        <ele>0.98330144902643</ele>
        <time>2017-07-12T10:41:32Z</time>
      </trkpt>
      <trkpt lat="43.18128" lon="3.19297">
        <ele>2.0429244960545</ele>
        <time>2017-07-12T10:43:47Z</time>
      </trkpt>
      <trkpt lat="43.18078" lon="3.19177">
        <ele>3.1929620917329</ele>
        <time>2017-07-12T10:45:30Z</time>
      </trkpt>
      <trkpt lat="43.18079" lon="3.19174">
        <ele>3.1929620917329</ele>
        <time>2017-07-12T10:45:32Z</time>
      </trkpt>
      <trkpt lat="43.18089" lon="3.19163">
        <ele>4.3054115378822</ele>
        <time>2017-07-12T10:45:46Z</time>
      </trkpt>
      <trkpt lat="43.18103" lon="3.19132">
        <ele>5.406053034024</ele>
        <time>2017-07-12T10:46:06Z</time>
      </trkpt>
      <trkpt lat="43.18159" lon="3.18965">
        <ele>6.5477958535525</ele>
        <time>2017-07-12T10:48:25Z</time>
      </trkpt>
      <trkpt lat="43.18158" lon="3.18965">
        <ele>6.5477958535525</ele>
        <time>2017-07-12T10:48:42Z</time>
      </trkpt>
    </trkseg>
  </trk>
</gpx>